Time;durP1;ratioP1;P1;durP2;ratioP2;P2;SDS_P1;SDS_P2;PMS_P1;PMS_P2;Temp;Humidity;BMP_temperature;BMP_pressure;BME280_temperature;BME280_humidity;BME280_pressure;Samples;Min_cycle;Max_cycle;Signal;HPM_P1;HPM_P2
2021/04/23 00:02:16;;;;;;;16.73;8.87;;;2.90;99.90;;;;;;4752675;30;20669;-79
2021/04/23 00:04:41;;;;;;;20.47;9.03;;;2.90;99.90;;;;;;4752402;30;20599;-80
2021/04/23 00:07:07;;;;;;;15.67;7.53;;;2.90;99.90;;;;;;4753027;30;20230;-80
2021/04/23 00:09:35;;;;;;;16.30;8.20;;;2.80;99.90;;;;;;4752124;30;20261;-80
2021/04/23 00:12:06;;;;;;;19.43;8.17;;;2.80;99.90;;;;;;4766155;30;20190;-80
2021/04/23 00:14:45;;;;;;;17.80;8.00;;;2.80;99.90;;;;;;4766094;30;20535;-80
2021/04/23 00:17:12;;;;;;;21.70;7.87;;;2.80;99.90;;;;;;4752490;30;20197;-80
2021/04/23 00:19:38;;;;;;;17.67;8.63;;;2.70;99.90;;;;;;4752487;30;20218;-80
2021/04/23 00:22:06;;;;;;;14.27;7.17;;;2.80;99.90;;;;;;4752405;30;20215;-80
2021/04/23 00:24:33;;;;;;;23.53;9.20;;;2.80;99.90;;;;;;4766161;30;20605;-79
2021/04/23 00:26:59;;;;;;;14.37;6.80;;;2.70;99.90;;;;;;4752603;30;20248;-80
2021/04/23 00:29:25;;;;;;;15.97;7.90;;;2.60;99.90;;;;;;4752548;30;20196;-79
2021/04/23 00:34:38;;;;;;;21.63;8.20;;;2.60;99.90;;;;;;4752383;30;20604;-79
2021/04/23 00:37:04;;;;;;;15.77;8.70;;;2.60;99.90;;;;;;4752785;30;20183;-79
2021/04/23 00:39:30;;;;;;;18.27;9.00;;;2.50;99.90;;;;;;4752698;30;20201;-78
2021/04/23 00:41:57;;;;;;;18.93;9.07;;;2.50;99.90;;;;;;4752255;30;20195;-78
2021/04/23 00:44:23;;;;;;;18.10;8.67;;;2.50;99.90;;;;;;4752201;30;20222;-79
2021/04/23 00:46:48;;;;;;;19.27;8.77;;;2.40;99.90;;;;;;4752030;30;20630;-79
2021/04/23 00:49:14;;;;;;;15.80;8.30;;;2.40;99.90;;;;;;4752160;30;20194;-78
2021/04/23 00:52:02;;;;;;;16.57;8.50;;;2.30;99.90;;;;;;4750808;30;20660;-78
2021/04/23 00:54:29;;;;;;;20.63;9.00;;;2.30;99.90;;;;;;4751518;30;20214;-78
2021/04/23 00:56:56;;;;;;;22.03;8.97;;;2.40;99.90;;;;;;4751562;30;20218;-79
2021/04/23 00:59:22;;;;;;;21.47;8.87;;;2.30;99.90;;;;;;4751490;30;20267;-79
2021/04/23 01:02:10;;;;;;;21.00;8.17;;;2.20;99.90;;;;;;4765805;30;20659;-79
2021/04/23 01:04:37;;;;;;;16.83;8.93;;;2.20;99.90;;;;;;4752339;30;20222;-79
2021/04/23 01:07:04;;;;;;;21.10;8.40;;;2.20;99.90;;;;;;4752121;30;20189;-79
2021/04/23 01:09:30;;;;;;;21.07;7.53;;;2.20;99.90;;;;;;4752379;30;20378;-79
2021/04/23 01:11:59;;;;;;;22.13;8.33;;;2.20;99.90;;;;;;4752033;30;20195;-79
2021/04/23 01:14:26;;;;;;;15.60;7.87;;;2.20;99.90;;;;;;4751770;30;20186;-79
2021/04/23 01:16:53;;;;;;;17.67;8.10;;;2.20;99.90;;;;;;4751894;30;20198;-79
2021/04/23 01:19:24;;;;;;;18.40;9.17;;;2.20;99.90;;;;;;4752191;30;20325;-79
2021/04/23 01:21:51;;;;;;;14.40;7.97;;;2.20;99.90;;;;;;4753935;30;20187;-79
2021/04/23 01:24:18;;;;;;;21.73;7.90;;;2.20;99.90;;;;;;4755621;30;20224;-80
2021/04/23 01:26:49;;;;;;;20.63;8.40;;;2.20;99.90;;;;;;4755176;30;20191;-80
2021/04/23 01:29:17;;;;;;;15.63;8.30;;;2.20;99.90;;;;;;4755095;30;20214;-79
2021/04/23 01:31:47;;;;;;;16.20;8.10;;;2.10;99.90;;;;;;4754980;30;20244;-80
2021/04/23 01:34:12;;;;;;;19.33;7.67;;;2.20;99.90;;;;;;4754780;30;20191;-80
2021/04/23 01:36:39;;;;;;;18.20;8.47;;;2.20;99.90;;;;;;4755102;30;20197;-79
2021/04/23 01:39:09;;;;;;;20.13;7.33;;;2.20;99.90;;;;;;4754868;30;20668;-79
2021/04/23 01:41:36;;;;;;;25.17;7.60;;;2.20;99.90;;;;;;4755053;30;20194;-79
2021/04/23 01:44:03;;;;;;;16.13;8.17;;;2.20;99.90;;;;;;4754647;30;20771;-80
2021/04/23 01:46:33;;;;;;;15.67;7.50;;;2.20;99.90;;;;;;4754971;30;20268;-80
2021/04/23 01:49:00;;;;;;;18.20;7.80;;;2.10;99.90;;;;;;4754876;30;20232;-80
2021/04/23 01:51:27;;;;;;;20.80;7.73;;;2.10;99.90;;;;;;4754909;30;20214;-80
2021/04/23 01:53:53;;;;;;;21.10;8.23;;;2.10;99.90;;;;;;4768439;30;20633;-80
2021/04/23 01:56:18;;;;;;;19.63;8.30;;;2.20;99.90;;;;;;4754971;30;20274;-80
2021/04/23 01:58:44;;;;;;;18.27;8.00;;;2.10;99.90;;;;;;4753643;30;20598;-80
2021/04/23 02:01:10;;;;;;;17.53;8.10;;;2.10;99.90;;;;;;4753438;30;20195;-80
2021/04/23 02:03:37;;;;;;;21.87;7.57;;;2.10;99.90;;;;;;4754365;30;20696;-80
2021/04/23 02:06:05;;;;;;;15.80;7.13;;;2.10;99.90;;;;;;4754413;30;20198;-80
2021/04/23 02:08:31;;;;;;;19.90;8.53;;;2.10;99.90;;;;;;4754657;30;20190;-80
2021/04/23 02:10:57;;;;;;;22.90;7.87;;;2.10;99.90;;;;;;4754522;30;20197;-80
2021/04/23 02:13:25;;;;;;;14.93;7.67;;;2.10;99.90;;;;;;4754505;30;20191;-80
2021/04/23 02:15:51;;;;;;;16.40;7.47;;;2.10;99.90;;;;;;4754249;30;20183;-80
2021/04/23 02:18:18;;;;;;;25.23;8.03;;;2.10;99.90;;;;;;4754161;30;20732;-79
2021/04/23 02:20:44;;;;;;;19.23;7.17;;;2.00;99.90;;;;;;4754259;30;20225;-80
2021/04/23 02:23:12;;;;;;;16.20;7.47;;;2.00;99.90;;;;;;4754196;30;20685;-79
2021/04/23 02:25:39;;;;;;;15.83;7.63;;;2.00;99.90;;;;;;4768193;30;20195;-80
2021/04/23 02:28:07;;;;;;;15.50;8.23;;;2.00;99.90;;;;;;4752892;30;20187;-79
2021/04/23 02:30:42;;;;;;;19.07;7.97;;;2.00;99.90;;;;;;4754340;30;20186;-80
2021/04/23 02:33:11;;;;;;;19.83;7.97;;;1.90;99.90;;;;;;4753450;30;20518;-80
2021/04/23 02:35:37;;;;;;;14.33;6.53;;;1.90;99.90;;;;;;4754440;30;20190;-79
2021/04/23 02:38:04;;;;;;;13.57;6.60;;;1.90;99.90;;;;;;4753873;30;20261;-80
2021/04/23 02:40:31;;;;;;;17.03;7.07;;;1.90;99.90;;;;;;4754313;30;20187;-80
2021/04/23 02:43:00;;;;;;;15.73;6.87;;;2.00;99.90;;;;;;4753029;30;20219;-80
2021/04/23 02:45:29;;;;;;;17.60;7.67;;;2.00;99.90;;;;;;4753177;30;20223;-79
2021/04/23 02:47:56;;;;;;;15.00;7.47;;;2.00;99.90;;;;;;4753058;30;20185;-80
2021/04/23 02:50:26;;;;;;;17.23;8.37;;;1.90;99.90;;;;;;4753007;30;20181;-80
2021/04/23 02:52:52;;;;;;;17.17;7.10;;;2.00;99.90;;;;;;4753775;30;20221;-80
2021/04/23 02:55:19;;;;;;;17.83;7.57;;;2.00;99.90;;;;;;4753718;30;20193;-80
2021/04/23 02:58:05;;;;;;;18.33;7.43;;;2.00;99.90;;;;;;4753675;30;20186;-80
2021/04/23 03:00:34;;;;;;;15.13;6.87;;;1.90;99.90;;;;;;4753964;30;20193;-80
2021/04/23 03:03:00;;;;;;;44.10;12.93;;;1.90;99.90;;;;;;4751467;30;20230;-79
2021/04/23 03:05:27;;;;;;;85.40;26.13;;;1.90;99.90;;;;;;4753276;30;20664;-80
2021/04/23 03:07:57;;;;;;;65.87;23.30;;;2.00;99.90;;;;;;4753207;30;20179;-80
2021/04/23 03:10:25;;;;;;;22.67;9.33;;;2.00;99.90;;;;;;4752273;30;20762;-79
2021/04/23 03:12:56;;;;;;;49.43;21.80;;;2.00;99.90;;;;;;4753562;30;20198;-89
2021/04/23 03:15:25;;;;;;;20.33;10.40;;;2.00;99.90;;;;;;4753691;30;20193;-79
2021/04/23 03:17:54;;;;;;;26.77;9.30;;;2.00;99.90;;;;;;4753530;30;20200;-79
2021/04/23 03:20:21;;;;;;;23.77;9.60;;;2.10;99.90;;;;;;4753278;30;20201;-79
2021/04/23 03:22:47;;;;;;;17.10;7.57;;;2.00;99.90;;;;;;4752403;30;20190;-79
2021/04/23 03:25:14;;;;;;;19.83;7.43;;;2.00;99.90;;;;;;4766018;30;20605;-79
2021/04/23 03:27:41;;;;;;;12.37;5.77;;;2.00;99.90;;;;;;4753113;30;20194;-79
2021/04/23 03:30:14;;;;;;;12.57;5.70;;;2.00;99.90;;;;;;4753284;30;20193;-79
2021/04/23 03:32:41;;;;;;;17.17;6.87;;;2.10;99.90;;;;;;4753268;30;20191;-79
2021/04/23 03:35:07;;;;;;;14.53;6.90;;;2.10;99.90;;;;;;4752703;30;20716;-80
2021/04/23 03:37:33;;;;;;;12.30;6.47;;;2.00;99.90;;;;;;4753208;30;20182;-80
2021/04/23 03:39:59;;;;;;;11.53;7.47;;;2.00;99.90;;;;;;4752690;30;20547;-80
2021/04/23 03:42:25;;;;;;;13.70;6.93;;;2.00;99.90;;;;;;4752400;30;20662;-79
2021/04/23 03:44:50;;;;;;;14.20;7.03;;;2.00;99.90;;;;;;4765023;30;20600;-79
2021/04/23 03:47:16;;;;;;;15.10;7.30;;;1.90;99.90;;;;;;4753304;30;20241;-79
2021/04/23 03:49:43;;;;;;;20.23;7.23;;;1.90;99.90;;;;;;4752976;30;20221;-82
2021/04/23 03:52:09;;;;;;;13.97;6.73;;;1.90;99.90;;;;;;4765764;30;20205;-79
2021/04/23 03:54:36;;;;;;;16.57;6.73;;;1.90;99.90;;;;;;4753085;30;20195;-79
2021/04/23 03:57:03;;;;;;;22.43;7.83;;;2.00;99.90;;;;;;4752771;30;20186;-80
2021/04/23 03:59:28;;;;;;;19.30;6.70;;;2.00;99.90;;;;;;4752622;30;20720;-79
2021/04/23 04:01:54;;;;;;;16.27;6.63;;;2.00;99.90;;;;;;4752550;30;20320;-79
2021/04/23 04:04:19;;;;;;;21.30;7.13;;;2.10;99.90;;;;;;4765084;30;20234;-79
2021/04/23 04:06:46;;;;;;;17.57;8.03;;;2.10;99.90;;;;;;4752501;30;20641;-79
2021/04/23 04:09:12;;;;;;;16.93;6.40;;;2.20;99.90;;;;;;4751973;30;20236;-79
2021/04/23 04:11:38;;;;;;;20.60;6.97;;;2.30;99.90;;;;;;4752449;30;20198;-80
2021/04/23 04:14:03;;;;;;;16.87;6.70;;;2.30;99.90;;;;;;4751818;30;20244;-80
2021/04/23 04:16:30;;;;;;;17.97;6.33;;;2.30;99.90;;;;;;4765911;30;20218;-80
2021/04/23 04:18:55;;;;;;;18.93;7.17;;;2.40;99.90;;;;;;4752515;30;20241;-81
2021/04/23 04:21:21;;;;;;;14.97;6.60;;;2.40;99.90;;;;;;4752130;30;20212;-80
2021/04/23 04:23:47;;;;;;;15.17;6.20;;;2.40;99.90;;;;;;4752251;30;20235;-79
2021/04/23 04:26:13;;;;;;;13.23;6.70;;;2.40;99.90;;;;;;4751575;30;20190;-80
2021/04/23 04:28:39;;;;;;;14.40;7.27;;;2.50;99.90;;;;;;4752552;30;20645;-80
2021/04/23 04:31:04;;;;;;;17.20;6.43;;;2.60;99.90;;;;;;4757751;30;20208;-81
2021/04/23 04:33:30;;;;;;;14.13;6.13;;;2.60;99.90;;;;;;4758235;30;20202;-79
2021/04/23 04:35:56;;;;;;;13.10;5.20;;;2.70;99.90;;;;;;4761452;29;20740;-80
2021/04/23 04:38:22;;;;;;;15.20;6.20;;;2.80;99.90;;;;;;4760071;30;20213;-80
2021/04/23 04:40:50;;;;;;;14.83;5.87;;;2.90;99.90;;;;;;4758241;30;20704;-79
2021/04/23 04:43:18;;;;;;;11.37;5.37;;;2.90;99.90;;;;;;4767081;30;20267;-80
2021/04/23 04:45:45;;;;;;;18.33;5.73;;;3.00;99.90;;;;;;4761534;30;20205;-80
2021/04/23 04:48:12;;;;;;;18.07;6.27;;;3.10;99.90;;;;;;4761848;30;20281;-81
2021/04/23 04:50:50;;;;;;;14.70;6.70;;;3.10;99.90;;;;;;4760043;30;20251;-81
2021/04/23 04:53:16;;;;;;;13.93;5.80;;;3.20;99.90;;;;;;4754595;30;20282;-81
2021/04/23 04:55:44;;;;;;;14.97;6.27;;;3.20;99.90;;;;;;4766616;30;20204;-80
2021/04/23 04:58:14;;;;;;;10.70;6.40;;;3.30;99.90;;;;;;4781606;29;20278;-81
2021/04/23 05:00:41;;;;;;;12.83;6.30;;;3.40;99.90;;;;;;4761913;30;20268;-80
2021/04/23 05:03:08;;;;;;;13.73;5.80;;;3.40;99.90;;;;;;4771535;29;20236;-83
2021/04/23 05:05:34;;;;;;;10.37;5.87;;;3.50;99.90;;;;;;4769856;30;20289;-81
2021/04/23 05:08:00;;;;;;;14.43;5.40;;;3.60;99.90;;;;;;4783876;29;20194;-80
2021/04/23 05:10:27;;;;;;;18.77;6.20;;;3.60;99.90;;;;;;4784087;29;20274;-81
2021/04/23 05:12:53;;;;;;;14.37;7.10;;;3.60;99.90;;;;;;4776322;30;20201;-81
2021/04/23 05:15:20;;;;;;;13.97;6.40;;;3.70;99.90;;;;;;4776827;29;20225;-80
2021/04/23 05:17:46;;;;;;;15.57;5.57;;;3.80;99.90;;;;;;4770363;30;20273;-81
2021/04/23 05:20:14;;;;;;;16.40;5.20;;;3.80;99.90;;;;;;4771547;30;20203;-81
2021/04/23 05:22:40;;;;;;;14.17;5.93;;;3.90;99.90;;;;;;4756790;30;20669;-80
2021/04/23 05:25:09;;;;;;;15.53;7.13;;;4.10;99.90;;;;;;4761668;30;20257;-79
2021/04/23 05:27:35;;;;;;;11.97;5.13;;;4.10;99.90;;;;;;4768317;30;20215;-80
2021/04/23 05:30:06;;;;;;;16.33;5.73;;;4.10;99.90;;;;;;4756731;30;20198;-81
2021/04/23 05:32:32;;;;;;;12.37;5.03;;;4.10;99.90;;;;;;4759666;30;20184;-80
2021/04/23 05:34:57;;;;;;;12.53;5.00;;;4.30;99.90;;;;;;4780316;29;20260;-80
2021/04/23 05:37:23;;;;;;;12.73;5.53;;;4.40;99.90;;;;;;4773397;29;20202;-80
2021/04/23 05:39:50;;;;;;;16.50;5.60;;;4.40;99.90;;;;;;4758880;30;20660;-80
2021/04/23 05:42:16;;;;;;;10.17;4.93;;;4.40;99.90;;;;;;4758697;30;20199;-82
2021/04/23 05:44:43;;;;;;;13.30;5.63;;;4.50;99.90;;;;;;4764701;30;20597;-80
2021/04/23 05:47:09;;;;;;;9.73;5.20;;;4.60;99.90;;;;;;4759745;30;20653;-81
2021/04/23 05:49:35;;;;;;;10.87;5.17;;;4.70;99.90;;;;;;4779778;30;20203;-80
2021/04/23 05:52:03;;;;;;;13.77;5.50;;;4.90;99.90;;;;;;4769210;30;20245;-80
2021/04/23 05:54:28;;;;;;;11.43;4.73;;;4.90;99.90;;;;;;4774726;30;20833;-80
2021/04/23 05:56:55;;;;;;;13.97;4.87;;;4.90;99.90;;;;;;4768429;30;20212;-80
2021/04/23 05:59:21;;;;;;;12.30;4.70;;;5.10;99.90;;;;;;4762620;30;20235;-80
2021/04/23 06:01:47;;;;;;;11.77;4.87;;;5.10;99.90;;;;;;4763091;30;20690;-79
2021/04/23 06:04:13;;;;;;;11.30;4.87;;;5.30;99.90;;;;;;4762221;30;20228;-80
2021/04/23 06:06:39;;;;;;;9.53;3.90;;;5.20;99.90;;;;;;4766489;30;20204;-80
2021/04/23 06:09:06;;;;;;;7.83;3.97;;;5.30;99.90;;;;;;4768524;30;20240;-81
2021/04/23 06:11:32;;;;;;;8.57;4.20;;;5.30;99.90;;;;;;4752178;30;20233;-80
2021/04/23 06:13:58;;;;;;;9.23;4.43;;;5.50;99.90;;;;;;4753814;30;20193;-79
2021/04/23 06:16:24;;;;;;;8.40;4.07;;;5.60;99.90;;;;;;4754221;30;20280;-80
2021/04/23 06:18:50;;;;;;;11.30;3.53;;;5.70;99.90;;;;;;4754372;30;20190;-80
2021/04/23 06:21:15;;;;;;;10.03;4.40;;;5.80;99.90;;;;;;4767701;30;20197;-80
2021/04/23 06:23:41;;;;;;;8.20;3.63;;;5.90;99.90;;;;;;4763418;30;20679;-80
2021/04/23 06:26:07;;;;;;;10.53;3.83;;;6.00;99.90;;;;;;4771610;30;20208;-81
2021/04/23 06:28:35;;;;;;;5.63;3.40;;;6.00;99.90;;;;;;4771278;30;20213;-83
2021/04/23 06:31:02;;;;;;;12.10;3.93;;;6.00;99.90;;;;;;4771529;30;20719;-80
2021/04/23 06:33:34;;;;;;;8.77;3.60;;;5.90;99.90;;;;;;4771530;30;20188;-79
2021/04/23 06:36:01;;;;;;;7.70;4.10;;;6.00;99.90;;;;;;4767482;29;20202;-80
2021/04/23 06:38:26;;;;;;;6.07;2.70;;;6.20;99.90;;;;;;4752550;30;20198;-80
2021/04/23 06:40:52;;;;;;;4.00;2.37;;;6.30;99.90;;;;;;4753980;30;20199;-79
2021/04/23 06:43:18;;;;;;;7.87;3.60;;;6.20;99.90;;;;;;4760600;30;20225;-80
2021/04/23 06:45:45;;;;;;;5.00;2.47;;;6.20;99.90;;;;;;4762812;30;20193;-81
2021/04/23 06:48:12;;;;;;;9.07;3.30;;;6.20;99.40;;;;;;4762844;30;20190;-80
2021/04/23 06:50:39;;;;;;;6.60;3.37;;;6.40;99.90;;;;;;4763425;30;20281;-79
2021/04/23 06:53:05;;;;;;;8.20;3.30;;;6.60;97.60;;;;;;4760791;30;20191;-79
2021/04/23 06:55:31;;;;;;;5.83;2.90;;;6.50;94.50;;;;;;4762307;30;20201;-80
2021/04/23 06:57:56;;;;;;;9.97;3.27;;;6.60;95.00;;;;;;4761987;30;20186;-79
2021/04/23 07:00:28;;;;;;;12.97;4.53;;;6.60;95.80;;;;;;4760720;30;20221;-80
2021/04/23 07:02:55;;;;;;;6.17;3.10;;;6.70;94.80;;;;;;4762597;30;20736;-81
2021/04/23 07:05:21;;;;;;;5.37;2.90;;;6.70;93.50;;;;;;4762367;30;20550;-80
2021/04/23 07:07:47;;;;;;;7.30;3.17;;;6.70;91.80;;;;;;4760595;30;20195;-80
2021/04/23 07:10:16;;;;;;;3.80;2.17;;;6.80;91.80;;;;;;4761986;30;20710;-80
2021/04/23 07:12:42;;;;;;;5.73;3.30;;;6.80;90.80;;;;;;4764667;30;20190;-78
2021/04/23 07:15:11;;;;;;;5.43;3.50;;;6.90;91.70;;;;;;4762272;30;20652;-78
2021/04/23 07:17:37;;;;;;;5.73;3.00;;;6.90;92.10;;;;;;4761667;30;20194;-79
2021/04/23 07:20:04;;;;;;;7.30;2.90;;;7.00;86.90;;;;;;4758943;30;20776;-78
2021/04/23 07:22:30;;;;;;;6.30;2.90;;;7.00;89.00;;;;;;4764838;30;20190;-78
2021/04/23 07:24:55;;;;;;;5.97;2.90;;;7.00;89.70;;;;;;4770772;30;20221;-79
2021/04/23 07:27:21;;;;;;;6.40;3.50;;;7.10;89.10;;;;;;4769693;30;20198;-79
2021/04/23 07:29:47;;;;;;;6.63;3.03;;;7.10;88.50;;;;;;4770872;30;20208;-79
2021/04/23 07:32:14;;;;;;;4.23;2.77;;;7.10;85.80;;;;;;4770692;30;20225;-78
2021/04/23 07:34:40;;;;;;;8.93;2.93;;;7.20;86.40;;;;;;4771130;30;20201;-79
2021/04/23 07:37:06;;;;;;;5.00;2.30;;;7.30;86.20;;;;;;4769416;30;20267;-79
2021/04/23 07:39:32;;;;;;;7.40;2.40;;;7.40;84.80;;;;;;4768385;30;20194;-80
2021/04/23 07:42:00;;;;;;;9.00;2.80;;;7.40;83.80;;;;;;4769065;30;20277;-80
2021/04/23 07:44:27;;;;;;;7.53;3.20;;;7.40;85.60;;;;;;4767031;30;20229;-80
2021/04/23 07:46:53;;;;;;;3.57;2.23;;;7.40;84.70;;;;;;4768599;30;20187;-79
2021/04/23 07:49:19;;;;;;;6.53;2.50;;;7.60;84.90;;;;;;4768442;30;20186;-84
2021/04/23 07:51:46;;;;;;;3.33;2.10;;;7.90;83.10;;;;;;4767328;29;20205;-78
2021/04/23 07:54:12;;;;;;;6.53;2.40;;;7.60;81.20;;;;;;4766972;29;20225;-79
2021/04/23 07:56:39;;;;;;;5.50;2.30;;;7.70;83.60;;;;;;4768065;30;20182;-78
2021/04/23 07:59:05;;;;;;;4.90;2.87;;;7.60;79.00;;;;;;4769869;30;20186;-79
2021/04/23 08:01:32;;;;;;;8.30;2.17;;;7.50;80.80;;;;;;4770159;30;20297;-79
2021/04/23 08:03:59;;;;;;;8.23;3.57;;;7.60;81.80;;;;;;4770298;30;20304;-79
2021/04/23 08:06:24;;;;;;;8.80;2.57;;;7.60;79.30;;;;;;4770280;30;20182;-79
2021/04/23 08:08:50;;;;;;;5.80;2.30;;;7.70;78.80;;;;;;4769144;30;20299;-79
2021/04/23 08:11:16;;;;;;;6.07;2.20;;;7.80;77.20;;;;;;4770473;30;20214;-80
2021/04/23 08:13:42;;;;;;;6.17;2.40;;;7.80;79.90;;;;;;4770235;30;20198;-79
2021/04/23 08:16:07;;;;;;;5.63;2.60;;;8.10;78.70;;;;;;4770249;30;20562;-79
2021/04/23 08:18:35;;;;;;;5.77;2.63;;;8.10;76.00;;;;;;4768677;30;20218;-79
2021/04/23 08:21:02;;;;;;;5.77;2.33;;;7.80;75.50;;;;;;4770053;30;20182;-79
2021/04/23 08:23:28;;;;;;;5.97;1.80;;;7.70;76.50;;;;;;4769969;30;20290;-77
2021/04/23 08:25:56;;;;;;;3.97;2.30;;;7.80;73.80;;;;;;4768802;30;20190;-78
2021/04/23 08:28:25;;;;;;;8.57;2.30;;;7.90;73.70;;;;;;4770187;30;20280;-78
2021/04/23 08:30:51;;;;;;;5.07;2.50;;;8.20;74.00;;;;;;4774571;30;20197;-79
2021/04/23 08:33:17;;;;;;;2.10;1.80;;;8.20;73.40;;;;;;4775834;30;20190;-79
2021/04/23 08:35:44;;;;;;;6.20;2.33;;;8.00;70.50;;;;;;4776188;30;20773;-79
2021/04/23 08:38:10;;;;;;;2.60;2.30;;;8.10;71.50;;;;;;4776105;30;20277;-79
2021/04/23 08:40:35;;;;;;;10.47;2.80;;;8.20;73.30;;;;;;4775829;30;20623;-80
2021/04/23 08:43:01;;;;;;;7.10;3.30;;;8.50;74.10;;;;;;4774714;30;20695;-78
2021/04/23 08:45:27;;;;;;;14.27;4.00;;;8.70;74.10;;;;;;4775611;30;20610;-78
2021/04/23 08:47:53;;;;;;;8.57;3.10;;;8.70;73.30;;;;;;4775766;30;20279;-79
2021/04/23 08:50:21;;;;;;;3.93;2.50;;;8.40;72.40;;;;;;4775626;30;20631;-79
2021/04/23 08:52:48;;;;;;;4.77;2.63;;;8.30;71.70;;;;;;4775671;30;20192;-78
2021/04/23 08:55:17;;;;;;;7.90;3.17;;;8.10;71.20;;;;;;4775877;30;20285;-79
2021/04/23 08:57:43;;;;;;;5.03;3.80;;;8.20;70.50;;;;;;4774249;30;20552;-78
2021/04/23 09:00:11;;;;;;;5.37;3.53;;;8.20;69.40;;;;;;4775671;30;20273;-78
2021/04/23 09:02:38;;;;;;;5.50;3.17;;;8.20;70.80;;;;;;4775386;30;20186;-79
2021/04/23 09:05:05;;;;;;;7.40;3.23;;;8.20;69.00;;;;;;4775622;30;20542;-78
2021/04/23 09:07:30;;;;;;;5.40;3.23;;;8.50;68.70;;;;;;4775691;30;20190;-79
2021/04/23 09:10:09;;;;;;;6.93;3.50;;;8.70;68.80;;;;;;4775649;30;20238;-79
2021/04/23 09:12:35;;;;;;;6.17;3.33;;;8.80;68.50;;;;;;4775631;30;20213;-78
2021/04/23 09:15:02;;;;;;;7.17;2.83;;;8.50;69.40;;;;;;4775457;30;20553;-80
2021/04/23 09:17:29;;;;;;;6.73;2.77;;;8.50;69.80;;;;;;4773894;30;20194;-85
2021/04/23 09:19:57;;;;;;;4.70;3.20;;;8.50;68.50;;;;;;4777309;30;20238;-80
2021/04/23 09:22:28;;;;;;;9.53;3.10;;;8.40;69.40;;;;;;4776504;30;20182;-78
2021/04/23 09:24:58;;;;;;;3.70;2.60;;;8.30;70.50;;;;;;4770604;30;20229;-79
2021/04/23 09:27:28;;;;;;;3.53;2.00;;;8.40;69.60;;;;;;4762871;30;20194;-81
2021/04/23 09:30:00;;;;;;;4.23;2.20;;;8.70;66.40;;;;;;4774835;30;20217;-78
2021/04/23 09:32:29;;;;;;;4.23;1.70;;;8.90;63.00;;;;;;4774232;30;20556;-78
2021/04/23 09:35:00;;;;;;;5.23;1.60;;;9.00;62.20;;;;;;4775566;30;20186;-80
2021/04/23 09:37:41;;;;;;;6.13;1.90;;;9.00;63.90;;;;;;4769759;30;20596;-80
2021/04/23 09:40:11;;;;;;;2.73;1.40;;;9.00;63.30;;;;;;4759744;30;20186;-79
2021/04/23 09:42:46;;;;;;;3.93;1.70;;;9.00;60.40;;;;;;4762994;30;20190;-79
2021/04/23 09:45:12;;;;;;;2.53;1.50;;;9.00;59.50;;;;;;4763783;30;20706;-79
2021/04/23 09:47:38;;;;;;;3.87;1.77;;;9.00;60.00;;;;;;4765115;30;20194;-80
2021/04/23 09:50:06;;;;;;;2.47;1.53;;;9.20;60.40;;;;;;4762471;30;20193;-80
2021/04/23 09:52:32;;;;;;;3.23;1.40;;;9.20;60.20;;;;;;4763584;30;20598;-81
2021/04/23 09:55:03;;;;;;;5.87;2.10;;;9.30;59.60;;;;;;4762773;30;20199;-79
2021/04/23 09:57:36;;;;;;;3.70;1.93;;;9.20;58.90;;;;;;4760854;30;20183;-80
2021/04/23 10:00:08;;;;;;;4.33;2.10;;;9.10;58.20;;;;;;4762905;30;20652;-79
2021/04/23 10:02:34;;;;;;;6.63;1.83;;;8.80;58.40;;;;;;4764381;30;20187;-81
2021/04/23 10:05:00;;;;;;;2.33;1.40;;;8.80;59.70;;;;;;4762710;30;20245;-80
2021/04/23 10:07:28;;;;;;;2.00;1.40;;;9.00;58.20;;;;;;4763169;30;20652;-80
2021/04/23 10:10:04;;;;;;;3.90;1.70;;;9.10;55.60;;;;;;4763396;30;20230;-79
2021/04/23 10:12:43;;;;;;;2.57;1.50;;;9.40;58.10;;;;;;4763487;30;20281;-79
2021/04/23 10:15:19;;;;;;;5.43;1.73;;;9.80;55.20;;;;;;4777064;30;20248;-80
2021/04/23 10:17:50;;;;;;;6.37;1.60;;;9.90;53.50;;;;;;4762910;30;20193;-81
2021/04/23 10:20:22;;;;;;;3.40;1.70;;;9.70;53.70;;;;;;4763581;30;20186;-81
2021/04/23 10:22:49;;;;;;;5.23;1.80;;;9.80;54.40;;;;;;4763626;30;20194;-81
2021/04/23 10:25:16;;;;;;;4.20;1.43;;;9.70;52.50;;;;;;4761859;30;20297;-81
2021/04/23 10:27:43;;;;;;;6.00;2.77;;;9.60;51.30;;;;;;4761181;30;20668;-80
2021/04/23 10:30:14;;;;;;;2.57;1.50;;;9.50;52.00;;;;;;4763091;30;20205;-81
2021/04/23 10:32:39;;;;;;;7.37;1.90;;;9.50;52.80;;;;;;4762280;30;20193;-80
2021/04/23 10:35:06;;;;;;;7.03;2.13;;;9.80;54.80;;;;;;4772211;30;20198;-79
2021/04/23 10:37:32;;;;;;;3.50;1.67;;;9.80;53.40;;;;;;4762889;30;20193;-80
2021/04/23 10:39:59;;;;;;;3.17;1.40;;;9.80;53.20;;;;;;4761385;30;20201;-79
2021/04/23 10:42:41;;;;;;;9.20;1.97;;;9.60;51.20;;;;;;4761102;30;20209;-79
2021/04/23 10:45:40;;;;;;;6.73;2.10;;;9.50;53.80;;;;;;4763884;30;20218;-80
2021/04/23 10:48:12;;;;;;;6.50;2.20;;;9.20;57.00;;;;;;4762458;30;20233;-80
2021/04/23 10:50:43;;;;;;;6.97;2.10;;;9.40;56.50;;;;;;4761159;30;20186;-84
2021/04/23 10:53:15;;;;;;;7.20;2.00;;;9.60;56.80;;;;;;4774828;29;20268;-81
2021/04/23 10:55:52;;;;;;;3.50;2.17;;;9.50;57.80;;;;;;4776237;30;20733;-80
2021/04/23 10:58:35;;;;;;;6.83;2.10;;;9.60;57.70;;;;;;4761714;30;20621;-79
2021/04/23 11:01:14;;;;;;;9.63;2.67;;;9.60;56.00;;;;;;4761883;30;20633;-80
2021/04/23 11:03:44;;;;;;;4.27;2.20;;;9.50;52.70;;;;;;4762136;30;20206;-81
2021/04/23 11:06:12;;;;;;;7.47;2.77;;;9.60;54.50;;;;;;4762197;29;20195;-80
2021/04/23 11:08:39;;;;;;;5.17;2.40;;;9.70;52.10;;;;;;4760881;30;20234;-80
2021/04/23 11:11:13;;;;;;;6.73;2.10;;;9.80;52.00;;;;;;4759700;30;20190;-80
2021/04/23 11:13:44;;;;;;;6.03;2.40;;;10.00;51.20;;;;;;4775848;30;20618;-84
2021/04/23 11:18:45;;;;;;;4.40;1.80;;;10.70;50.80;;;;;;4758873;30;20209;-81
2021/04/23 11:21:32;;;;;;;6.10;2.37;;;10.80;50.40;;;;;;4763098;30;20565;-79
2021/04/23 11:24:19;;;;;;;3.43;2.10;;;10.80;50.00;;;;;;4762416;30;20601;-79
2021/04/23 11:26:57;;;;;;;6.30;2.00;;;10.80;48.60;;;;;;4760490;30;20198;-80
2021/04/23 11:29:35;;;;;;;9.40;2.13;;;10.60;46.20;;;;;;4759226;30;20289;-81
2021/04/23 11:32:23;;;;;;;6.03;2.00;;;10.90;43.60;;;;;;4759079;30;20679;-80
2021/04/23 11:35:10;;;;;;;5.53;1.80;;;11.10;42.50;;;;;;4762245;30;20278;-79
2021/04/23 11:37:41;;;;;;;2.83;2.10;;;11.00;44.20;;;;;;4762175;30;20637;-79
2021/04/23 11:40:14;;;;;;;8.80;2.40;;;10.60;44.60;;;;;;4775304;30;20205;-79
2021/04/23 11:42:49;;;;;;;5.20;2.20;;;10.50;45.80;;;;;;4761406;30;20270;-80
2021/04/23 11:45:30;;;;;;;5.13;2.20;;;10.80;46.10;;;;;;4760987;30;20221;-80
2021/04/23 11:47:58;;;;;;;3.17;1.87;;;11.10;47.30;;;;;;4775425;30;20197;-80
2021/04/23 11:50:29;;;;;;;2.93;1.83;;;11.40;46.40;;;;;;4775407;30;20717;-81
2021/04/23 11:52:57;;;;;;;7.70;2.43;;;11.30;45.90;;;;;;4760390;30;20197;-80
2021/04/23 11:55:28;;;;;;;6.17;2.40;;;11.20;46.70;;;;;;4760143;30;20628;-80
2021/04/23 11:58:04;;;;;;;4.53;2.23;;;11.00;47.90;;;;;;4761267;30;20534;-80
2021/04/23 12:00:31;;;;;;;4.40;2.20;;;10.80;46.50;;;;;;4759640;30;20265;-80
2021/04/23 12:02:58;;;;;;;8.77;2.23;;;10.50;45.00;;;;;;4760215;30;20214;-80
2021/04/23 12:05:24;;;;;;;4.00;2.10;;;10.20;45.70;;;;;;4757846;30;20217;-81
2021/04/23 12:07:52;;;;;;;4.47;2.53;;;10.10;46.30;;;;;;4761001;30;20194;-82
2021/04/23 12:10:19;;;;;;;3.77;2.07;;;10.00;48.10;;;;;;4761922;30;20246;-82
2021/04/23 12:12:46;;;;;;;10.23;2.63;;;10.10;49.30;;;;;;4758738;30;20244;-85
2021/04/23 12:15:27;;;;;;;8.97;2.63;;;10.00;52.50;;;;;;4760225;30;20190;-80
2021/04/23 12:17:56;;;;;;;7.27;2.27;;;10.00;53.10;;;;;;4774301;30;20662;-80
2021/04/23 12:20:25;;;;;;;5.70;2.77;;;10.00;52.30;;;;;;4758505;29;20637;-80
2021/04/23 12:22:52;;;;;;;12.63;2.87;;;9.70;54.10;;;;;;4758192;30;20207;-81
2021/04/23 12:25:22;;;;;;;7.20;2.83;;;9.50;54.40;;;;;;4761277;30;20715;-78
2021/04/23 12:27:48;;;;;;;7.33;3.00;;;9.40;56.20;;;;;;4759339;30;20277;-80
2021/04/23 12:30:28;;;;;;;6.37;2.87;;;9.40;57.20;;;;;;4759750;30;20247;-79
2021/04/23 12:32:55;;;;;;;13.80;4.17;;;9.70;57.40;;;;;;4764307;30;20276;-79
2021/04/23 12:35:42;;;;;;;8.43;3.43;;;9.90;57.70;;;;;;4769875;30;20701;-78
2021/04/23 12:38:10;;;;;;;5.40;1.97;;;9.80;59.20;;;;;;4768481;30;20396;-79
2021/04/23 12:40:45;;;;;;;6.00;2.47;;;9.90;59.50;;;;;;4769652;30;20182;-79
2021/04/23 12:43:13;;;;;;;7.43;3.43;;;9.90;60.60;;;;;;4769508;30;20217;-79
2021/04/23 12:45:47;;;;;;;5.30;3.00;;;9.70;62.00;;;;;;4769662;30;20208;-80
2021/04/23 12:48:14;;;;;;;5.77;2.77;;;9.50;63.80;;;;;;4768401;30;20190;-80
2021/04/23 12:50:41;;;;;;;3.93;2.80;;;9.30;62.10;;;;;;4768669;30;20182;-79
2021/04/23 12:53:08;;;;;;;5.13;2.70;;;9.00;62.10;;;;;;4760162;30;20205;-79
2021/04/23 12:55:34;;;;;;;4.67;2.87;;;9.20;60.00;;;;;;4768619;30;20668;-79
2021/04/23 12:58:00;;;;;;;4.33;2.80;;;9.20;61.10;;;;;;4769570;30;20281;-80
2021/04/23 13:00:30;;;;;;;7.43;2.37;;;9.40;60.30;;;;;;4769668;30;20182;-80
2021/04/23 13:02:58;;;;;;;6.13;3.10;;;9.70;60.00;;;;;;4769463;30;20190;-80